createdAt,value
2022-09-16T00:01:46.156Z,96.50
2022-09-16T00:05:50.944Z,96.60
2022-09-16T00:09:53.668Z,96.60
2022-09-16T00:13:57.696Z,96.60
2022-09-16T00:18:00.536Z,96.50
2022-09-16T00:22:03.258Z,96.60
2022-09-16T00:26:06.672Z,96.50
2022-09-16T00:30:11.900Z,96.60
2022-09-16T00:34:14.733Z,96.60
2022-09-16T00:38:17.590Z,96.50
2022-09-16T00:42:20.653Z,96.60
2022-09-16T00:46:31.570Z,96.60
2022-09-16T00:50:38.887Z,96.60
2022-09-16T00:54:43.169Z,96.50
2022-09-16T00:58:48.825Z,96.60
2022-09-16T01:02:53.306Z,96.50
2022-09-16T01:06:56.454Z,96.50
2022-09-16T01:10:59.183Z,96.50
2022-09-16T01:15:03.209Z,96.50
2022-09-16T01:19:19.157Z,96.40
2022-09-16T01:23:55.345Z,96.60
2022-09-16T01:28:22.925Z,96.70
2022-09-16T01:32:33.250Z,97.00
2022-09-16T01:36:46.382Z,97.30
2022-09-16T01:40:55.955Z,97.30
2022-09-16T01:45:04.976Z,97.30
2022-09-16T01:49:19.357Z,97.40
2022-09-16T01:53:26.523Z,97.40
2022-09-16T01:57:37.867Z,97.50
2022-09-16T02:01:47.020Z,97.50
2022-09-16T02:05:55.026Z,97.60
2022-09-16T02:10:04.688Z,97.60
2022-09-16T02:14:11.494Z,97.60
2022-09-16T02:18:19.190Z,97.70
2022-09-16T02:22:30.049Z,97.80
2022-09-16T02:26:37.973Z,97.80
2022-09-16T02:30:43.999Z,97.80
2022-09-16T02:34:50.880Z,97.90
2022-09-16T02:39:01.539Z,97.90
2022-09-16T02:43:04.718Z,97.80
2022-09-16T02:47:12.963Z,97.80
2022-09-16T02:51:22.673Z,97.80
2022-09-16T02:55:37.553Z,97.70
2022-09-16T02:59:40.802Z,97.60
2022-09-16T03:03:43.546Z,97.60
2022-09-16T03:07:46.301Z,97.60
2022-09-16T03:12:08.438Z,97.60
2022-09-16T03:16:17.422Z,97.70
2022-09-16T03:20:30.456Z,97.70
2022-09-16T03:24:43.884Z,97.70
2022-09-16T03:28:54.746Z,97.80
2022-09-16T03:33:02.132Z,97.80
2022-09-16T03:37:09.661Z,97.90
2022-09-16T03:41:14.459Z,98.00
2022-09-16T03:45:21.533Z,98.00
2022-09-16T03:49:24.296Z,98.10
2022-09-16T03:53:26.996Z,98.20
2022-09-16T03:57:30.611Z,98.40
2022-09-16T04:01:34.796Z,98.60
2022-09-16T04:05:37.557Z,98.70
2022-09-16T04:09:40.293Z,98.80
2022-09-16T04:13:43.180Z,98.70
2022-09-16T04:17:47.193Z,98.80
2022-09-16T04:21:49.982Z,98.80
2022-09-16T04:25:55.921Z,98.80
2022-09-16T04:29:58.770Z,98.80
2022-09-16T04:34:04.122Z,99.10
2022-09-16T04:38:06.881Z,98.80
2022-09-16T04:42:12.336Z,98.70
2022-09-16T04:46:15.112Z,98.70
2022-09-16T04:50:19.184Z,98.70
2022-09-16T04:54:21.897Z,98.70
2022-09-16T04:58:24.668Z,98.70
2022-09-16T05:02:28.597Z,98.80
2022-09-16T05:06:34.306Z,98.80
2022-09-16T05:10:37.139Z,98.90
2022-09-16T05:14:39.846Z,98.90
2022-09-16T05:18:44.412Z,98.90
2022-09-16T05:22:49.885Z,98.90
2022-09-16T05:26:52.572Z,99.00
2022-09-16T05:30:55.387Z,99.00
2022-09-16T05:34:58.183Z,99.10
2022-09-16T05:39:23.232Z,99.10
2022-09-16T05:43:26.256Z,99.00
2022-09-16T05:47:28.949Z,99.00
2022-09-16T05:51:31.990Z,99.00
2022-09-16T05:55:36.027Z,98.90
2022-09-16T05:59:39.276Z,98.80
2022-09-16T06:03:43.870Z,98.90
2022-09-16T06:07:46.697Z,98.90
2022-09-16T06:11:56.644Z,98.80
2022-09-16T06:16:01.569Z,98.70
2022-09-16T06:20:05.811Z,98.60
2022-09-16T06:24:10.029Z,98.50
2022-09-16T06:28:14.369Z,98.20
2022-09-16T06:32:17.110Z,98.10
2022-09-16T06:36:21.482Z,98.00
2022-09-16T06:40:24.471Z,97.60
2022-09-16T06:44:28.601Z,97.40
2022-09-16T06:48:34.318Z,97.30
2022-09-16T06:52:37.078Z,97.20
2022-09-16T06:56:41.351Z,97.30
2022-09-16T07:00:45.406Z,97.20
2022-09-16T07:04:48.403Z,97.10
2022-09-16T07:08:51.398Z,96.90
2022-09-16T07:12:54.243Z,97.00
2022-09-16T07:16:58.719Z,96.90
2022-09-16T07:21:03.354Z,96.50
2022-09-16T07:25:06.962Z,96.60
2022-09-16T07:29:12.498Z,96.00
2022-09-16T07:33:16.521Z,95.80
2022-09-16T07:37:19.911Z,95.60
2022-09-16T07:41:25.567Z,95.70
2022-09-16T07:45:28.364Z,95.80
2022-09-16T07:49:32.445Z,95.50
2022-09-16T07:53:36.203Z,95.40
2022-09-16T07:57:38.958Z,95.30
2022-09-16T08:01:43.592Z,95.30
2022-09-16T08:06:08.335Z,94.70
2022-09-16T08:10:11.217Z,94.30
2022-09-16T08:14:14.885Z,93.60
2022-09-16T08:18:18.038Z,93.00
2022-09-16T08:22:23.408Z,92.80
2022-09-16T08:26:26.997Z,92.80
2022-09-16T08:30:29.822Z,92.20
2022-09-16T08:34:32.547Z,92.30
2022-09-16T08:38:37.308Z,92.30
2022-09-16T08:42:55.210Z,92.10
2022-09-16T08:47:00.902Z,91.90
2022-09-16T08:51:04.081Z,92.10
2022-09-16T08:55:13.088Z,91.90
2022-09-16T08:59:21.562Z,91.60
2022-09-16T09:03:35.850Z,91.50
2022-09-16T09:07:56.560Z,91.40
2022-09-16T09:12:06.315Z,90.50
2022-09-16T09:16:19.107Z,90.20
2022-09-16T09:20:31.956Z,90.60
2022-09-16T09:24:56.592Z,88.30
2022-09-16T09:29:22.102Z,87.30
2022-09-16T09:33:45.954Z,84.50
2022-09-16T09:38:25.693Z,83.10
2022-09-16T09:42:31.481Z,81.20
2022-09-16T09:46:39.486Z,81.30
2022-09-16T09:50:45.968Z,77.90
2022-09-16T09:54:52.947Z,79.70
2022-09-16T09:59:03.378Z,76.40
2022-09-16T10:03:13.171Z,75.00
2022-09-16T10:07:19.296Z,73.90
2022-09-16T10:11:24.193Z,74.00
2022-09-16T10:15:29.987Z,74.30
2022-09-16T10:19:39.499Z,74.10
2022-09-16T10:23:42.617Z,74.80
2022-09-16T10:28:00.089Z,73.50
2022-09-16T10:32:09.750Z,68.60
2022-09-16T10:36:21.452Z,68.70
2022-09-16T10:40:25.436Z,68.90
2022-09-16T10:44:31.232Z,68.10
2022-09-16T10:48:36.445Z,68.20
2022-09-16T10:52:45.151Z,66.40
2022-09-16T10:56:49.870Z,67.70
2022-09-16T11:01:07.786Z,67.50
2022-09-16T11:05:15.638Z,64.60
2022-09-16T11:09:31.458Z,63.20
2022-09-16T11:13:47.650Z,62.20
2022-09-16T11:18:04.304Z,63.30
2022-09-16T11:22:18.858Z,62.60
2022-09-16T11:26:31.098Z,62.30
2022-09-16T11:30:41.564Z,59.20
2022-09-16T11:35:01.279Z,59.90
2022-09-16T11:39:18.487Z,59.40
2022-09-16T11:44:04.998Z,59.10
2022-09-16T11:48:33.485Z,57.70
2022-09-16T11:52:51.754Z,57.50
2022-09-16T11:56:58.508Z,58.70
2022-09-16T12:01:07.756Z,58.80
2022-09-16T12:05:18.282Z,57.40
2022-09-16T12:09:27.856Z,58.00
2022-09-16T12:13:36.083Z,57.50
2022-09-16T12:17:43.869Z,57.50
2022-09-16T12:21:57.516Z,56.60
2022-09-16T12:26:06.206Z,56.10
2022-09-16T12:30:16.877Z,57.40
2022-09-16T12:34:23.924Z,55.90
2022-09-16T12:38:26.998Z,55.90
2022-09-16T12:42:53.518Z,56.30
2022-09-16T12:47:08.015Z,55.80
2022-09-16T12:51:39.269Z,56.60
2022-09-16T12:56:00.866Z,56.60
2022-09-16T13:00:12.816Z,56.40
2022-09-16T13:04:19.402Z,56.70
2022-09-16T13:08:26.371Z,55.90
2022-09-16T13:12:43.198Z,57.00
2022-09-16T13:16:54.678Z,60.50
2022-09-16T13:21:00.454Z,63.90
2022-09-16T13:25:12.828Z,65.80
2022-09-16T13:29:45.772Z,74.70
2022-09-16T13:33:50.567Z,78.90
2022-09-16T13:37:55.401Z,80.30
2022-09-16T13:42:12.098Z,83.80
2022-09-16T13:46:28.498Z,85.40
2022-09-16T13:50:31.442Z,88.70
2022-09-16T13:54:53.565Z,88.20
2022-09-16T13:59:13.308Z,87.50
2022-09-16T14:03:38.211Z,89.10
2022-09-16T14:07:48.440Z,87.50
2022-09-16T14:11:58.347Z,87.90
2022-09-16T14:16:02.733Z,84.70
2022-09-16T14:20:10.918Z,82.10
2022-09-16T14:24:18.387Z,80.20
2022-09-16T14:28:23.910Z,75.70
2022-09-16T14:32:30.681Z,75.90
2022-09-16T14:36:37.709Z,72.30
2022-09-16T14:40:40.813Z,69.40
2022-09-16T14:44:47.643Z,69.70
2022-09-16T14:48:51.976Z,66.00
2022-09-16T14:52:56.555Z,67.90
2022-09-16T14:57:00.796Z,66.40
2022-09-16T15:01:10.349Z,65.40
2022-09-16T15:05:23.815Z,65.50
2022-09-16T15:09:32.188Z,64.70
2022-09-16T15:13:38.810Z,64.10
2022-09-16T15:17:41.896Z,64.70
2022-09-16T15:21:45.993Z,64.10
2022-09-16T15:25:54.449Z,63.40
2022-09-16T15:30:00.041Z,60.50
2022-09-16T15:34:05.908Z,60.50
2022-09-16T15:38:13.745Z,61.80
2022-09-16T15:42:20.426Z,59.80
2022-09-16T15:46:24.768Z,60.50
2022-09-16T15:50:30.752Z,60.80
2022-09-16T15:54:38.918Z,61.30
2022-09-16T15:58:46.450Z,66.50
2022-09-16T16:02:53.875Z,73.50
2022-09-16T16:06:58.775Z,76.30
2022-09-16T16:11:09.229Z,79.30
2022-09-16T16:15:12.018Z,81.80
2022-09-16T16:19:15.509Z,83.90
2022-09-16T16:23:18.394Z,84.30
2022-09-16T16:27:22.752Z,85.90
2022-09-16T16:31:25.542Z,87.30
2022-09-16T16:35:28.275Z,88.60
2022-09-16T16:39:31.101Z,89.30
2022-09-16T16:43:35.410Z,90.30
2022-09-16T16:47:38.430Z,92.00
2022-09-16T16:51:41.146Z,93.50
2022-09-16T16:55:43.897Z,92.90
2022-09-16T16:59:48.008Z,92.60
2022-09-16T17:03:50.804Z,92.70
2022-09-16T17:07:53.511Z,93.20
2022-09-16T17:11:57.911Z,93.20
2022-09-16T17:16:02.216Z,93.30
2022-09-16T17:20:05.597Z,93.60
2022-09-16T17:24:08.730Z,94.10
2022-09-16T17:28:11.460Z,94.20
2022-09-16T17:32:16.126Z,94.30
2022-09-16T17:36:20.914Z,95.10
2022-09-16T17:40:23.688Z,95.00
2022-09-16T17:44:26.970Z,95.00
2022-09-16T17:48:31.768Z,95.20
2022-09-16T17:52:34.631Z,95.30
2022-09-16T17:56:37.894Z,95.40
2022-09-16T18:00:40.730Z,95.60
2022-09-16T18:04:44.894Z,95.80
2022-09-16T18:08:48.085Z,95.70
2022-09-16T18:12:50.799Z,95.80
2022-09-16T18:16:53.797Z,95.70
2022-09-16T18:20:58.391Z,95.70
2022-09-16T18:25:01.666Z,95.60
2022-09-16T18:29:19.767Z,95.50
2022-09-16T18:33:22.730Z,95.40
2022-09-16T18:37:26.905Z,95.30
2022-09-16T18:41:31.594Z,95.10
2022-09-16T18:45:34.526Z,95.10
2022-09-16T18:49:37.299Z,94.80
2022-09-16T18:53:41.398Z,94.50
2022-09-16T18:57:44.288Z,94.40
2022-09-16T19:01:49.006Z,94.10
2022-09-16T19:05:58.005Z,93.60
2022-09-16T19:10:02.072Z,93.40
2022-09-16T19:14:06.009Z,93.30
2022-09-16T19:18:08.847Z,93.10
2022-09-16T19:22:11.570Z,93.20
2022-09-16T19:26:16.932Z,93.80
2022-09-16T19:30:19.706Z,94.20
2022-09-16T19:34:23.016Z,94.50
2022-09-16T19:38:28.307Z,94.30
2022-09-16T19:42:32.368Z,94.10
2022-09-16T19:46:37.128Z,93.90
2022-09-16T19:50:42.238Z,93.90
2022-09-16T19:54:49.105Z,93.60
2022-09-16T19:58:54.206Z,93.60
2022-09-16T20:02:57.047Z,93.60
2022-09-16T20:07:00.177Z,93.80
2022-09-16T20:11:04.518Z,94.20
2022-09-16T20:15:09.211Z,94.50
2022-09-16T20:19:14.124Z,95.10
2022-09-16T20:23:17.067Z,95.40
2022-09-16T20:27:19.782Z,95.80
2022-09-16T20:31:26.162Z,96.10
2022-09-16T20:35:28.934Z,96.50
2022-09-16T20:39:31.621Z,96.50
2022-09-16T20:43:34.683Z,96.50
2022-09-16T20:47:38.745Z,96.70
2022-09-16T20:51:41.443Z,96.80
2022-09-16T20:55:44.155Z,96.90
2022-09-16T20:59:47.032Z,97.00
2022-09-16T21:03:54.114Z,97.10
2022-09-16T21:07:57.747Z,97.30
2022-09-16T21:12:00.460Z,97.70
2022-09-16T21:16:03.554Z,97.70
2022-09-16T21:20:09.168Z,98.00
2022-09-16T21:24:12.057Z,98.40
2022-09-16T21:28:14.839Z,98.30
2022-09-16T21:32:17.534Z,98.40
2022-09-16T21:36:23.085Z,98.60
2022-09-16T21:40:25.919Z,98.70
2022-09-16T21:44:28.650Z,98.90
2022-09-16T21:48:33.238Z,99.20
2022-09-16T21:52:37.300Z,99.20
2022-09-16T21:56:41.397Z,99.30
2022-09-16T22:00:44.137Z,99.40
2022-09-16T22:04:46.890Z,99.50
2022-09-16T22:08:51.036Z,99.60
2022-09-16T22:12:53.789Z,99.60
2022-09-16T22:16:56.492Z,99.80
2022-09-16T22:21:03.348Z,99.80
2022-09-16T22:25:08.178Z,99.90
2022-09-16T22:29:12.499Z,99.90
2022-09-16T22:33:15.254Z,99.90
2022-09-16T22:37:17.934Z,99.90
2022-09-16T22:41:22.939Z,99.90
2022-09-16T22:45:25.766Z,99.90
2022-09-16T22:49:28.628Z,99.90
2022-09-16T22:53:32.742Z,99.90
2022-09-16T22:57:36.773Z,99.90
2022-09-16T23:01:40.584Z,99.90
2022-09-16T23:05:43.377Z,99.90
2022-09-16T23:09:47.150Z,99.90
2022-09-16T23:13:52.891Z,99.90
2022-09-16T23:17:55.734Z,99.90
2022-09-16T23:21:58.490Z,99.90
2022-09-16T23:26:03.160Z,99.90
2022-09-16T23:30:08.551Z,99.90
2022-09-16T23:34:14.516Z,99.90
2022-09-16T23:38:17.310Z,99.90
2022-09-16T23:42:19.989Z,99.90
2022-09-16T23:46:25.627Z,99.90
2022-09-16T23:50:28.446Z,99.90
2022-09-16T23:54:31.178Z,99.90
2022-09-16T23:58:34.758Z,99.90
